sensor_id;sensor_type;location;lat;lon;timestamp;pressure;altitude;pressure_sealevel;temperature;humidity
50434;BME280;36361;38.954;-9.002;2022-08-04T00:00:03;100401.97;;;21.19;91.97
50434;BME280;36361;38.954;-9.002;2022-08-04T00:01:10;100396.56;;;21.62;90.27
50434;BME280;36361;38.954;-9.002;2022-08-04T00:02:18;100400.31;;;21.71;89.06
50434;BME280;36361;38.954;-9.002;2022-08-04T00:03:23;100413.47;;;21.37;90.67
50434;BME280;36361;38.954;-9.002;2022-08-04T00:04:52;100400.75;;;21.36;90.90
50434;BME280;36361;38.954;-9.002;2022-08-04T00:07:18;100394.47;;;21.25;91.52
50434;BME280;36361;38.954;-9.002;2022-08-04T00:08:46;100408.56;;;21.28;91.41
50434;BME280;36361;38.954;-9.002;2022-08-04T00:09:51;100401.19;;;20.90;94.00
50434;BME280;36361;38.954;-9.002;2022-08-04T00:10:58;100399.16;;;21.77;89.47
50434;BME280;36361;38.954;-9.002;2022-08-04T00:12:00;100401.75;;;21.45;91.08
50434;BME280;36361;38.954;-9.002;2022-08-04T00:13:03;100401.09;;;21.53;90.13
50434;BME280;36361;38.954;-9.002;2022-08-04T00:14:10;100394.44;;;21.54;90.59
50434;BME280;36361;38.954;-9.002;2022-08-04T00:15:15;100409.69;;;21.27;91.71
50434;BME280;36361;38.954;-9.002;2022-08-04T00:16:16;100399.19;;;21.24;92.29
50434;BME280;36361;38.954;-9.002;2022-08-04T00:17:20;100398.03;;;21.54;90.04
50434;BME280;36361;38.954;-9.002;2022-08-04T00:18:40;100397.25;;;20.96;93.35
50434;BME280;36361;38.954;-9.002;2022-08-04T00:19:44;100410.28;;;20.90;94.03
50434;BME280;36361;38.954;-9.002;2022-08-04T00:20:46;100396.28;;;20.82;94.87
50434;BME280;36361;38.954;-9.002;2022-08-04T00:21:55;100404.81;;;21.14;93.47
50434;BME280;36361;38.954;-9.002;2022-08-04T00:22:56;100406.47;;;21.15;93.22
50434;BME280;36361;38.954;-9.002;2022-08-04T00:23:57;100406.91;;;20.98;93.94
50434;BME280;36361;38.954;-9.002;2022-08-04T00:25:03;100408.13;;;21.16;92.94
50434;BME280;36361;38.954;-9.002;2022-08-04T00:26:04;100402.69;;;21.06;93.39
50434;BME280;36361;38.954;-9.002;2022-08-04T00:27:06;100402.41;;;21.61;90.75
50434;BME280;36361;38.954;-9.002;2022-08-04T00:28:08;100412.34;;;21.62;90.29
50434;BME280;36361;38.954;-9.002;2022-08-04T00:29:09;100403.47;;;21.41;91.46
50434;BME280;36361;38.954;-9.002;2022-08-04T00:30:10;100416.72;;;21.15;92.79
50434;BME280;36361;38.954;-9.002;2022-08-04T00:31:11;100409.72;;;20.93;93.85
50434;BME280;36361;38.954;-9.002;2022-08-04T00:32:16;100410.63;;;20.84;94.82
50434;BME280;36361;38.954;-9.002;2022-08-04T00:33:18;100403.63;;;20.96;93.97
50434;BME280;36361;38.954;-9.002;2022-08-04T00:34:20;100398.84;;;21.02;94.27
50434;BME280;36361;38.954;-9.002;2022-08-04T00:35:23;100407.53;;;21.19;92.91
50434;BME280;36361;38.954;-9.002;2022-08-04T00:36:25;100403.91;;;21.48;91.39
50434;BME280;36361;38.954;-9.002;2022-08-04T00:37:27;100405.22;;;21.32;92.21
50434;BME280;36361;38.954;-9.002;2022-08-04T00:38:29;100413.81;;;21.54;90.62
50434;BME280;36361;38.954;-9.002;2022-08-04T00:39:31;100407.00;;;21.70;89.72
50434;BME280;36361;38.954;-9.002;2022-08-04T00:43:33;100400.75;;;21.36;91.38
50434;BME280;36361;38.954;-9.002;2022-08-04T00:55:04;100395.25;;;21.54;90.77
50434;BME280;36361;38.954;-9.002;2022-08-04T00:59:41;100384.63;;;21.85;89.24
50434;BME280;36361;38.954;-9.002;2022-08-04T01:02:16;100380.19;;;21.84;89.22
50434;BME280;36361;38.954;-9.002;2022-08-04T01:03:36;100386.16;;;21.97;88.53
50434;BME280;36361;38.954;-9.002;2022-08-04T01:04:48;100376.09;;;21.82;89.22
50434;BME280;36361;38.954;-9.002;2022-08-04T01:06:01;100374.75;;;21.79;89.28
50434;BME280;36361;38.954;-9.002;2022-08-04T01:13:37;100369.66;;;21.44;91.92
50434;BME280;36361;38.954;-9.002;2022-08-04T01:14:47;100370.97;;;21.22;93.82
50434;BME280;36361;38.954;-9.002;2022-08-04T01:16:01;100373.66;;;21.33;93.27
50434;BME280;36361;38.954;-9.002;2022-08-04T01:18:50;100369.97;;;22.04;88.93
50434;BME280;36361;38.954;-9.002;2022-08-04T01:21:02;100369.78;;;21.34;92.94
50434;BME280;36361;38.954;-9.002;2022-08-04T01:23:50;100381.22;;;21.22;94.34
50434;BME280;36361;38.954;-9.002;2022-08-04T01:29:55;100374.00;;;21.50;92.75
50434;BME280;36361;38.954;-9.002;2022-08-04T01:32:31;100376.72;;;21.31;94.18
50434;BME280;36361;38.954;-9.002;2022-08-04T01:33:33;100381.66;;;21.34;93.94
50434;BME280;36361;38.954;-9.002;2022-08-04T01:35:50;100372.91;;;21.22;94.64
50434;BME280;36361;38.954;-9.002;2022-08-04T01:36:58;100373.88;;;21.36;93.87
50434;BME280;36361;38.954;-9.002;2022-08-04T01:39:04;100368.81;;;21.43;93.22
50434;BME280;36361;38.954;-9.002;2022-08-04T01:40:26;100359.97;;;21.65;91.74
50434;BME280;36361;38.954;-9.002;2022-08-04T01:41:27;100369.03;;;21.23;93.83
50434;BME280;36361;38.954;-9.002;2022-08-04T01:42:30;100370.94;;;21.27;93.82
50434;BME280;36361;38.954;-9.002;2022-08-04T01:43:40;100366.00;;;21.19;93.42
50434;BME280;36361;38.954;-9.002;2022-08-04T01:44:41;100363.06;;;21.40;93.13
50434;BME280;36361;38.954;-9.002;2022-08-04T01:45:44;100355.50;;;21.21;94.31
50434;BME280;36361;38.954;-9.002;2022-08-04T01:46:49;100359.75;;;21.80;91.04
50434;BME280;36361;38.954;-9.002;2022-08-04T01:47:52;100361.03;;;21.45;91.96
50434;BME280;36361;38.954;-9.002;2022-08-04T01:48:54;100357.28;;;21.60;91.69
50434;BME280;36361;38.954;-9.002;2022-08-04T01:50:03;100352.00;;;21.40;93.25
50434;BME280;36361;38.954;-9.002;2022-08-04T01:51:06;100355.72;;;21.73;91.30
50434;BME280;36361;38.954;-9.002;2022-08-04T01:52:15;100351.00;;;21.73;91.57
50434;BME280;36361;38.954;-9.002;2022-08-04T01:53:16;100354.69;;;21.45;92.51
50434;BME280;36361;38.954;-9.002;2022-08-04T01:54:18;100354.81;;;21.58;92.22
50434;BME280;36361;38.954;-9.002;2022-08-04T01:55:21;100367.19;;;21.42;92.72
50434;BME280;36361;38.954;-9.002;2022-08-04T01:56:23;100360.44;;;21.24;94.10
50434;BME280;36361;38.954;-9.002;2022-08-04T01:57:28;100359.19;;;21.41;93.28
50434;BME280;36361;38.954;-9.002;2022-08-04T01:58:30;100355.81;;;21.44;92.93
50434;BME280;36361;38.954;-9.002;2022-08-04T01:59:33;100361.03;;;21.45;92.76
50434;BME280;36361;38.954;-9.002;2022-08-04T02:00:37;100357.50;;;21.64;92.15
50434;BME280;36361;38.954;-9.002;2022-08-04T02:01:44;100351.00;;;21.73;91.38
50434;BME280;36361;38.954;-9.002;2022-08-04T02:02:45;100355.97;;;21.76;91.03
50434;BME280;36361;38.954;-9.002;2022-08-04T02:03:46;100354.28;;;21.75;91.35
50434;BME280;36361;38.954;-9.002;2022-08-04T02:04:47;100353.19;;;21.95;90.28
50434;BME280;36361;38.954;-9.002;2022-08-04T02:05:49;100345.78;;;21.91;90.34
50434;BME280;36361;38.954;-9.002;2022-08-04T02:10:04;100357.84;;;21.57;92.41
50434;BME280;36361;38.954;-9.002;2022-08-04T02:11:11;100352.94;;;21.01;95.62
50434;BME280;36361;38.954;-9.002;2022-08-04T02:13:55;100349.78;;;20.84;97.41
50434;BME280;36361;38.954;-9.002;2022-08-04T02:15:18;100353.66;;;20.83;98.46
50434;BME280;36361;38.954;-9.002;2022-08-04T02:19:08;100351.25;;;21.05;97.21
50434;BME280;36361;38.954;-9.002;2022-08-04T02:20:28;100343.47;;;21.07;96.95
50434;BME280;36361;38.954;-9.002;2022-08-04T02:21:29;100349.78;;;20.84;97.99
50434;BME280;36361;38.954;-9.002;2022-08-04T02:22:32;100348.22;;;20.72;99.29
50434;BME280;36361;38.954;-9.002;2022-08-04T02:23:35;100354.56;;;20.39;100.00
50434;BME280;36361;38.954;-9.002;2022-08-04T02:24:45;100352.44;;;20.65;100.00
50434;BME280;36361;38.954;-9.002;2022-08-04T02:25:52;100353.03;;;20.23;100.00
50434;BME280;36361;38.954;-9.002;2022-08-04T02:26:55;100352.25;;;20.17;100.00
50434;BME280;36361;38.954;-9.002;2022-08-04T02:28:22;100349.63;;;20.36;100.00
50434;BME280;36361;38.954;-9.002;2022-08-04T02:29:50;100356.50;;;20.43;100.00
50434;BME280;36361;38.954;-9.002;2022-08-04T02:31:02;100353.69;;;21.36;97.37
50434;BME280;36361;38.954;-9.002;2022-08-04T02:32:11;100355.25;;;21.18;98.44
50434;BME280;36361;38.954;-9.002;2022-08-04T02:33:20;100356.66;;;21.15;98.57
50434;BME280;36361;38.954;-9.002;2022-08-04T02:35:26;100365.28;;;20.85;100.00
50434;BME280;36361;38.954;-9.002;2022-08-04T02:36:35;100367.13;;;20.94;100.00
50434;BME280;36361;38.954;-9.002;2022-08-04T02:37:36;100363.56;;;20.89;100.00
50434;BME280;36361;38.954;-9.002;2022-08-04T02:39:58;100369.84;;;20.65;100.00
50434;BME280;36361;38.954;-9.002;2022-08-04T02:41:00;100368.19;;;20.69;100.00
50434;BME280;36361;38.954;-9.002;2022-08-04T02:42:04;100370.94;;;20.69;100.00
50434;BME280;36361;38.954;-9.002;2022-08-04T02:43:05;100369.69;;;20.86;100.00
50434;BME280;36361;38.954;-9.002;2022-08-04T02:44:08;100368.13;;;20.74;100.00
50434;BME280;36361;38.954;-9.002;2022-08-04T02:45:11;100373.72;;;20.69;100.00
50434;BME280;36361;38.954;-9.002;2022-08-04T02:46:12;100377.03;;;20.66;100.00
50434;BME280;36361;38.954;-9.002;2022-08-04T02:47:13;100372.19;;;20.53;100.00
50434;BME280;36361;38.954;-9.002;2022-08-04T02:48:16;100373.59;;;20.51;100.00
50434;BME280;36361;38.954;-9.002;2022-08-04T02:49:20;100370.75;;;20.22;100.00
50434;BME280;36361;38.954;-9.002;2022-08-04T02:50:22;100377.03;;;20.32;100.00
50434;BME280;36361;38.954;-9.002;2022-08-04T02:51:27;100377.94;;;20.17;100.00
50434;BME280;36361;38.954;-9.002;2022-08-04T02:52:28;100377.91;;;20.23;100.00
50434;BME280;36361;38.954;-9.002;2022-08-04T02:53:31;100374.09;;;20.13;100.00
50434;BME280;36361;38.954;-9.002;2022-08-04T02:54:38;100378.88;;;20.42;100.00
50434;BME280;36361;38.954;-9.002;2022-08-04T02:55:40;100380.25;;;20.50;100.00
50434;BME280;36361;38.954;-9.002;2022-08-04T02:56:44;100381.09;;;20.45;100.00
50434;BME280;36361;38.954;-9.002;2022-08-04T02:57:46;100380.75;;;20.52;100.00
50434;BME280;36361;38.954;-9.002;2022-08-04T02:58:52;100382.63;;;20.90;100.00
50434;BME280;36361;38.954;-9.002;2022-08-04T03:00:08;100377.09;;;20.61;100.00
50434;BME280;36361;38.954;-9.002;2022-08-04T03:01:15;100374.56;;;20.65;100.00
50434;BME280;36361;38.954;-9.002;2022-08-04T03:02:22;100374.56;;;20.65;100.00
50434;BME280;36361;38.954;-9.002;2022-08-04T03:05:18;100373.97;;;20.29;100.00
50434;BME280;36361;38.954;-9.002;2022-08-04T03:09:05;100377.91;;;20.62;100.00
50434;BME280;36361;38.954;-9.002;2022-08-04T03:10:19;100380.28;;;20.39;100.00
50434;BME280;36361;38.954;-9.002;2022-08-04T03:27:01;100356.78;;;20.03;100.00
50434;BME280;36361;38.954;-9.002;2022-08-04T03:34:21;100374.91;;;20.58;100.00
50434;BME280;36361;38.954;-9.002;2022-08-04T03:36:47;100385.72;;;20.55;100.00
50434;BME280;36361;38.954;-9.002;2022-08-04T03:39:41;100388.25;;;20.46;100.00
50434;BME280;36361;38.954;-9.002;2022-08-04T03:42:53;100381.78;;;20.22;100.00
50434;BME280;36361;38.954;-9.002;2022-08-04T03:46:48;100389.09;;;20.47;100.00
50434;BME280;36361;38.954;-9.002;2022-08-04T03:51:37;100389.91;;;20.81;100.00
50434;BME280;36361;38.954;-9.002;2022-08-04T03:54:42;100378.06;;;20.76;100.00
50434;BME280;36361;38.954;-9.002;2022-08-04T04:03:00;100373.34;;;20.42;100.00
50434;BME280;36361;38.954;-9.002;2022-08-04T04:06:02;100378.13;;;20.70;100.00
50434;BME280;36361;38.954;-9.002;2022-08-04T04:10:11;100377.19;;;20.51;100.00
50434;BME280;36361;38.954;-9.002;2022-08-04T04:11:43;100379.84;;;20.61;100.00
50434;BME280;36361;38.954;-9.002;2022-08-04T04:16:42;100373.81;;;20.54;100.00
50434;BME280;36361;38.954;-9.002;2022-08-04T04:32:20;100370.47;;;20.57;100.00
50434;BME280;36361;38.954;-9.002;2022-08-04T04:33:36;100367.28;;;20.40;100.00
50434;BME280;36361;38.954;-9.002;2022-08-04T04:45:29;100367.34;;;20.98;100.00
50434;BME280;36361;38.954;-9.002;2022-08-04T04:46:47;100372.91;;;20.64;100.00
50434;BME280;36361;38.954;-9.002;2022-08-04T04:48:02;100368.28;;;20.54;100.00
50434;BME280;36361;38.954;-9.002;2022-08-04T04:50:34;100371.06;;;20.54;100.00
50434;BME280;36361;38.954;-9.002;2022-08-04T04:51:43;100366.88;;;20.23;100.00
50434;BME280;36361;38.954;-9.002;2022-08-04T04:52:54;100371.59;;;20.56;100.00
50434;BME280;36361;38.954;-9.002;2022-08-04T04:55:28;100369.38;;;20.58;100.00
50434;BME280;36361;38.954;-9.002;2022-08-04T04:56:55;100363.50;;;20.65;100.00
50434;BME280;36361;38.954;-9.002;2022-08-04T04:58:00;100367.84;;;20.76;100.00
50434;BME280;36361;38.954;-9.002;2022-08-04T04:59:02;100361.81;;;20.69;100.00
50434;BME280;36361;38.954;-9.002;2022-08-04T05:00:08;100364.22;;;20.76;100.00
50434;BME280;36361;38.954;-9.002;2022-08-04T05:01:30;100368.22;;;20.64;100.00
50434;BME280;36361;38.954;-9.002;2022-08-04T05:09:09;100374.72;;;20.44;100.00
50434;BME280;36361;38.954;-9.002;2022-08-04T05:11:44;100372.94;;;20.20;100.00
50434;BME280;36361;38.954;-9.002;2022-08-04T05:13:22;100373.97;;;20.29;100.00
50434;BME280;36361;38.954;-9.002;2022-08-04T05:14:28;100373.22;;;20.18;100.00
50434;BME280;36361;38.954;-9.002;2022-08-04T05:15:34;100384.97;;;20.44;100.00
50434;BME280;36361;38.954;-9.002;2022-08-04T05:16:43;100379.53;;;20.68;100.00
50434;BME280;36361;38.954;-9.002;2022-08-04T05:17:49;100380.56;;;20.38;100.00
50434;BME280;36361;38.954;-9.002;2022-08-04T05:20:38;100382.19;;;20.49;100.00
50434;BME280;36361;38.954;-9.002;2022-08-04T05:21:52;100390.50;;;20.44;100.00
50434;BME280;36361;38.954;-9.002;2022-08-04T05:22:59;100381.16;;;20.30;100.00
50434;BME280;36361;38.954;-9.002;2022-08-04T05:24:05;100393.75;;;20.51;100.00
50434;BME280;36361;38.954;-9.002;2022-08-04T05:25:19;100398.41;;;20.11;100.00
50434;BME280;36361;38.954;-9.002;2022-08-04T05:26:25;100400.63;;;20.09;100.00
50434;BME280;36361;38.954;-9.002;2022-08-04T05:27:38;100400.84;;;20.23;100.00
50434;BME280;36361;38.954;-9.002;2022-08-04T05:28:47;100394.13;;;20.34;100.00
50434;BME280;36361;38.954;-9.002;2022-08-04T05:29:58;100391.88;;;20.41;100.00
50434;BME280;36361;38.954;-9.002;2022-08-04T05:31:15;100399.03;;;20.48;100.00
50434;BME280;36361;38.954;-9.002;2022-08-04T05:32:19;100391.81;;;20.52;100.00
50434;BME280;36361;38.954;-9.002;2022-08-04T05:33:30;100400.50;;;20.30;100.00
50434;BME280;36361;38.954;-9.002;2022-08-04T05:34:49;100400.31;;;20.21;100.00
50434;BME280;36361;38.954;-9.002;2022-08-04T05:35:56;100390.56;;;20.29;100.00
50434;BME280;36361;38.954;-9.002;2022-08-04T05:37:16;100397.13;;;20.38;100.00
50434;BME280;36361;38.954;-9.002;2022-08-04T05:38:22;100395.13;;;20.54;100.00
50434;BME280;36361;38.954;-9.002;2022-08-04T05:39:32;100400.84;;;20.62;100.00
50434;BME280;36361;38.954;-9.002;2022-08-04T05:40:37;100395.47;;;20.37;100.00
50434;BME280;36361;38.954;-9.002;2022-08-04T05:41:39;100408.13;;;20.48;100.00
50434;BME280;36361;38.954;-9.002;2022-08-04T05:42:42;100404.63;;;20.77;100.00
50434;BME280;36361;38.954;-9.002;2022-08-04T05:43:44;100409.03;;;20.78;100.00
50434;BME280;36361;38.954;-9.002;2022-08-04T05:44:45;100397.03;;;20.58;100.00
50434;BME280;36361;38.954;-9.002;2022-08-04T05:45:46;100403.03;;;20.65;100.00
50434;BME280;36361;38.954;-9.002;2022-08-04T05:46:55;100406.84;;;20.74;100.00
50434;BME280;36361;38.954;-9.002;2022-08-04T05:47:56;100403.72;;;20.47;100.00
50434;BME280;36361;38.954;-9.002;2022-08-04T05:48:57;100401.81;;;20.82;100.00
50434;BME280;36361;38.954;-9.002;2022-08-04T05:49:59;100399.66;;;21.02;100.00
50434;BME280;36361;38.954;-9.002;2022-08-04T05:51:02;100398.50;;;20.80;100.00
50434;BME280;36361;38.954;-9.002;2022-08-04T05:52:05;100402.78;;;20.96;100.00
50434;BME280;36361;38.954;-9.002;2022-08-04T05:53:08;100401.56;;;21.07;100.00
50434;BME280;36361;38.954;-9.002;2022-08-04T05:54:10;100400.56;;;20.98;100.00
50434;BME280;36361;38.954;-9.002;2022-08-04T05:55:12;100401.47;;;20.88;100.00
50434;BME280;36361;38.954;-9.002;2022-08-04T05:56:17;100394.19;;;20.97;100.00
50434;BME280;36361;38.954;-9.002;2022-08-04T05:57:25;100399.53;;;20.89;100.00
50434;BME280;36361;38.954;-9.002;2022-08-04T05:58:29;100392.47;;;20.72;100.00
50434;BME280;36361;38.954;-9.002;2022-08-04T05:59:31;100394.22;;;20.63;100.00
50434;BME280;36361;38.954;-9.002;2022-08-04T06:00:33;100393.56;;;20.77;100.00
50434;BME280;36361;38.954;-9.002;2022-08-04T06:01:37;100393.25;;;20.49;100.00
50434;BME280;36361;38.954;-9.002;2022-08-04T06:02:39;100399.09;;;20.77;100.00
50434;BME280;36361;38.954;-9.002;2022-08-04T06:03:42;100396.25;;;20.48;100.00
50434;BME280;36361;38.954;-9.002;2022-08-04T06:04:47;100401.69;;;20.63;100.00
50434;BME280;36361;38.954;-9.002;2022-08-04T06:05:49;100403.44;;;20.83;100.00
50434;BME280;36361;38.954;-9.002;2022-08-04T06:06:51;100395.97;;;20.83;100.00
50434;BME280;36361;38.954;-9.002;2022-08-04T06:07:53;100400.59;;;20.93;100.00
50434;BME280;36361;38.954;-9.002;2022-08-04T06:08:54;100407.81;;;20.89;100.00
50434;BME280;36361;38.954;-9.002;2022-08-04T06:09:56;100408.41;;;20.86;100.00
50434;BME280;36361;38.954;-9.002;2022-08-04T06:11:03;100400.03;;;20.96;100.00
50434;BME280;36361;38.954;-9.002;2022-08-04T06:12:18;100403.31;;;20.98;100.00
50434;BME280;36361;38.954;-9.002;2022-08-04T06:13:25;100404.75;;;20.56;100.00
50434;BME280;36361;38.954;-9.002;2022-08-04T06:14:32;100406.28;;;20.78;100.00
50434;BME280;36361;38.954;-9.002;2022-08-04T06:15:38;100406.50;;;20.81;100.00
50434;BME280;36361;38.954;-9.002;2022-08-04T06:16:42;100410.00;;;20.92;100.00
50434;BME280;36361;38.954;-9.002;2022-08-04T06:17:56;100414.69;;;20.96;100.00
50434;BME280;36361;38.954;-9.002;2022-08-04T06:19:03;100404.66;;;20.71;100.00
50434;BME280;36361;38.954;-9.002;2022-08-04T06:20:07;100403.69;;;21.15;100.00
50434;BME280;36361;38.954;-9.002;2022-08-04T06:21:10;100413.63;;;21.21;100.00
50434;BME280;36361;38.954;-9.002;2022-08-04T06:22:12;100409.66;;;20.69;100.00
50434;BME280;36361;38.954;-9.002;2022-08-04T06:23:17;100413.19;;;20.75;100.00
50434;BME280;36361;38.954;-9.002;2022-08-04T06:24:23;100413.75;;;20.33;100.00
50434;BME280;36361;38.954;-9.002;2022-08-04T06:25:28;100413.66;;;20.48;100.00
50434;BME280;36361;38.954;-9.002;2022-08-04T06:26:32;100417.91;;;20.74;100.00
50434;BME280;36361;38.954;-9.002;2022-08-04T06:27:34;100412.81;;;20.53;100.00
50434;BME280;36361;38.954;-9.002;2022-08-04T06:28:35;100417.28;;;20.49;100.00
50434;BME280;36361;38.954;-9.002;2022-08-04T06:29:37;100424.63;;;20.63;100.00
50434;BME280;36361;38.954;-9.002;2022-08-04T06:30:41;100426.66;;;20.87;100.00
50434;BME280;36361;38.954;-9.002;2022-08-04T06:31:47;100417.91;;;20.74;100.00
50434;BME280;36361;38.954;-9.002;2022-08-04T06:32:58;100424.13;;;20.56;100.00
50434;BME280;36361;38.954;-9.002;2022-08-04T06:34:03;100420.97;;;21.02;100.00
50434;BME280;36361;38.954;-9.002;2022-08-04T06:35:06;100427.91;;;20.99;100.00
50434;BME280;36361;38.954;-9.002;2022-08-04T06:36:09;100422.19;;;20.91;100.00
50434;BME280;36361;38.954;-9.002;2022-08-04T06:37:12;100424.34;;;20.65;100.00
50434;BME280;36361;38.954;-9.002;2022-08-04T06:38:14;100418.31;;;20.58;100.00
50434;BME280;36361;38.954;-9.002;2022-08-04T06:39:23;100428.31;;;20.88;100.00
50434;BME280;36361;38.954;-9.002;2022-08-04T06:40:25;100434.28;;;21.00;100.00
50434;BME280;36361;38.954;-9.002;2022-08-04T06:41:33;100432.72;;;20.89;100.00
50434;BME280;36361;38.954;-9.002;2022-08-04T06:42:36;100427.22;;;20.84;100.00
50434;BME280;36361;38.954;-9.002;2022-08-04T06:43:37;100429.47;;;20.82;100.00
50434;BME280;36361;38.954;-9.002;2022-08-04T06:44:39;100424.19;;;20.85;100.00
50434;BME280;36361;38.954;-9.002;2022-08-04T06:45:42;100422.69;;;20.98;100.00
50434;BME280;36361;38.954;-9.002;2022-08-04T06:46:43;100432.84;;;20.73;100.00
50434;BME280;36361;38.954;-9.002;2022-08-04T06:47:47;100421.22;;;20.77;100.00
50434;BME280;36361;38.954;-9.002;2022-08-04T06:48:53;100431.09;;;20.83;100.00
50434;BME280;36361;38.954;-9.002;2022-08-04T06:49:54;100430.88;;;20.79;100.00
50434;BME280;36361;38.954;-9.002;2022-08-04T06:50:55;100429.13;;;20.88;100.00
50434;BME280;36361;38.954;-9.002;2022-08-04T06:51:58;100423.00;;;20.91;100.00
50434;BME280;36361;38.954;-9.002;2022-08-04T06:53:00;100435.00;;;20.82;100.00
50434;BME280;36361;38.954;-9.002;2022-08-04T06:54:01;100439.59;;;20.91;100.00
50434;BME280;36361;38.954;-9.002;2022-08-04T06:55:03;100437.03;;;21.00;100.00
50434;BME280;36361;38.954;-9.002;2022-08-04T06:56:05;100439.25;;;21.03;100.00
50434;BME280;36361;38.954;-9.002;2022-08-04T06:57:09;100437.44;;;21.17;100.00
50434;BME280;36361;38.954;-9.002;2022-08-04T06:58:11;100431.88;;;21.22;100.00
50434;BME280;36361;38.954;-9.002;2022-08-04T06:59:14;100442.56;;;21.00;100.00
50434;BME280;36361;38.954;-9.002;2022-08-04T07:00:16;100431.06;;;21.17;100.00
50434;BME280;36361;38.954;-9.002;2022-08-04T07:01:18;100439.59;;;20.91;100.00
50434;BME280;36361;38.954;-9.002;2022-08-04T07:02:28;100439.34;;;20.54;100.00
50434;BME280;36361;38.954;-9.002;2022-08-04T07:03:30;100446.59;;;20.50;100.00
50434;BME280;36361;38.954;-9.002;2022-08-04T07:04:31;100444.56;;;20.60;100.00
50434;BME280;36361;38.954;-9.002;2022-08-04T07:05:33;100453.06;;;20.25;100.00
50434;BME280;36361;38.954;-9.002;2022-08-04T07:06:34;100452.47;;;20.28;100.00
50434;BME280;36361;38.954;-9.002;2022-08-04T07:07:36;100453.66;;;20.11;100.00
50434;BME280;36361;38.954;-9.002;2022-08-04T07:08:38;100462.03;;;19.91;100.00
50434;BME280;36361;38.954;-9.002;2022-08-04T07:09:39;100451.81;;;19.92;100.00
50434;BME280;36361;38.954;-9.002;2022-08-04T07:10:40;100451.53;;;20.03;100.00
50434;BME280;36361;38.954;-9.002;2022-08-04T07:11:41;100448.09;;;20.22;100.00
50434;BME280;36361;38.954;-9.002;2022-08-04T07:12:43;100451.13;;;20.25;100.00
50434;BME280;36361;38.954;-9.002;2022-08-04T07:13:45;100451.72;;;20.17;100.00
50434;BME280;36361;38.954;-9.002;2022-08-04T07:14:47;100449.47;;;20.19;100.00
50434;BME280;36361;38.954;-9.002;2022-08-04T07:15:48;100450.47;;;20.43;100.00
50434;BME280;36361;38.954;-9.002;2022-08-04T07:16:53;100451.13;;;20.20;100.00
50434;BME280;36361;38.954;-9.002;2022-08-04T07:17:56;100456.88;;;20.34;100.00
50434;BME280;36361;38.954;-9.002;2022-08-04T07:19:04;100451.59;;;20.37;100.00
50434;BME280;36361;38.954;-9.002;2022-08-04T07:20:05;100465.66;;;20.46;100.00
50434;BME280;36361;38.954;-9.002;2022-08-04T07:21:06;100464.00;;;20.50;100.00
50434;BME280;36361;38.954;-9.002;2022-08-04T07:22:07;100468.41;;;20.51;100.00
50434;BME280;36361;38.954;-9.002;2022-08-04T07:23:10;100466.78;;;20.45;100.00
50434;BME280;36361;38.954;-9.002;2022-08-04T07:24:16;100468.97;;;20.48;100.00
50434;BME280;36361;38.954;-9.002;2022-08-04T07:25:17;100471.69;;;20.58;100.00
50434;BME280;36361;38.954;-9.002;2022-08-04T07:26:19;100470.63;;;20.49;100.00
50434;BME280;36361;38.954;-9.002;2022-08-04T07:27:20;100473.03;;;20.61;100.00
50434;BME280;36361;38.954;-9.002;2022-08-04T07:28:22;100467.88;;;20.44;100.00
50434;BME280;36361;38.954;-9.002;2022-08-04T07:29:23;100473.81;;;20.66;100.00
50434;BME280;36361;38.954;-9.002;2022-08-04T07:30:24;100470.56;;;20.59;100.00
50434;BME280;36361;38.954;-9.002;2022-08-04T07:31:27;100481.69;;;20.49;100.00
50434;BME280;36361;38.954;-9.002;2022-08-04T07:32:31;100474.16;;;20.60;100.00
50434;BME280;36361;38.954;-9.002;2022-08-04T07:33:33;100484.47;;;20.44;100.00
50434;BME280;36361;38.954;-9.002;2022-08-04T07:34:34;100483.69;;;20.33;100.00
50434;BME280;36361;38.954;-9.002;2022-08-04T07:35:37;100475.06;;;20.45;100.00
50434;BME280;36361;38.954;-9.002;2022-08-04T07:36:39;100476.41;;;20.53;100.00
50434;BME280;36361;38.954;-9.002;2022-08-04T07:37:39;100475.22;;;20.64;100.00
50434;BME280;36361;38.954;-9.002;2022-08-04T07:38:41;100477.66;;;20.70;100.00
50434;BME280;36361;38.954;-9.002;2022-08-04T07:39:43;100474.16;;;20.55;100.00
50434;BME280;36361;38.954;-9.002;2022-08-04T07:40:44;100466.56;;;20.76;100.00
50434;BME280;36361;38.954;-9.002;2022-08-04T07:41:45;100472.06;;;20.81;100.00
50434;BME280;36361;38.954;-9.002;2022-08-04T07:42:46;100474.75;;;20.91;100.00
50434;BME280;36361;38.954;-9.002;2022-08-04T07:43:47;100484.25;;;20.74;100.00
50434;BME280;36361;38.954;-9.002;2022-08-04T07:44:48;100480.47;;;20.65;100.00
50434;BME280;36361;38.954;-9.002;2022-08-04T07:45:49;100474.28;;;20.79;100.00
50434;BME280;36361;38.954;-9.002;2022-08-04T07:46:50;100473.63;;;20.92;100.00
50434;BME280;36361;38.954;-9.002;2022-08-04T07:47:51;100475.63;;;20.86;100.00
50434;BME280;36361;38.954;-9.002;2022-08-04T07:48:51;100488.97;;;20.74;100.00
50434;BME280;36361;38.954;-9.002;2022-08-04T07:49:53;100493.59;;;20.84;100.00
50434;BME280;36361;38.954;-9.002;2022-08-04T07:50:54;100475.94;;;20.80;100.00
50434;BME280;36361;38.954;-9.002;2022-08-04T07:51:55;100474.84;;;20.76;100.00
50434;BME280;36361;38.954;-9.002;2022-08-04T07:52:56;100484.91;;;21.00;100.00
50434;BME280;36361;38.954;-9.002;2022-08-04T07:53:57;100486.19;;;20.74;100.00
50434;BME280;36361;38.954;-9.002;2022-08-04T07:54:59;100489.88;;;20.64;100.00
50434;BME280;36361;38.954;-9.002;2022-08-04T07:56:01;100497.84;;;20.71;100.00
50434;BME280;36361;38.954;-9.002;2022-08-04T07:57:02;100499.56;;;20.67;100.00